메인 페이지
METAR-TAF:

METAR-TAF

공항 :

다윈, 오스트레일리아

다윈 국제공항

위도: 12-24S, 경도: 130-52E, 고도: 31m

현재 날씨관측

예보는 29분 전, 07:00시(UTC)에 발표되었습니다.
서북서11kt
온도 31°C
습도 66%
기압 1004 hPa
시정 10km 이상
고도 2700ft 상공 구름 조금
고도 40000ft 상공 구름 보통

METAR: YPDN 250700Z 30011KT 9999 FEW027 SCT400 31/24 Q1004 NOSIG

시각: 16:59 (07:29 UTC)

예보

예보는 2 시간 4분 전, 05:25시(UTC)에 발표되었습니다.
예보 대상 시간: 25일 06시부터 26일 12시까지 (UTC)
7kt
시정 10km 이상
고도 2000ft 상공 구름 보통
확률 30% :
일시적
25일 06시부터 25일 09시까지 (UTC)
여러 방향의 바람 20kt, 순간 최대 풍속 35kt
시정: 1000m
고도 1000ft 상공 구름 많음
고도 2000ft 상공 구름 보통, 적란운.
뇌우, 비
확률 30% :
일시적
26일 04시부터 26일 09시까지 (UTC)
여러 방향의 바람 20kt, 순간 최대 풍속 35kt
시정: 1000m
고도 1000ft 상공 구름 많음
고도 2000ft 상공 구름 보통, 적란운.
뇌우, 비

TAF: YPDN 250525Z 2506/2612 28007KT 9999 SCT020 PROB30 TEMPO 2506/2509 VRB20G35KT 1000 TSRA BKN010 SCT020CB PROB30 TEMPO 2604/2609 VRB20G35KT 1000 TSRA BKN010 SCT020CB

4,000개 이상의 공항 관측 자료 및 예보 (METAR 및 TAF 보고).

지도상에서 검색 가능한 기상관측소가 노란 점과 빨간 점으로 표시되어 있습니다.

기상관측소 명을 보려면 표시 위로 마우스를 이동하세요.

날씨 관측과 예보를 보려면 클릭하세요.

지도 변경 : 확대하려면 엑스 표시가 있는 녹색 버튼, 축소하려면 빼기 표시가 있는 녹색 버튼, 다음 페이지의 지도를 보려면 녹색 화살표를 클릭하세요.


METAR-TAF: